<?xml version="1.0" encoding="UTF-8" standalone="no" ?>
<gpx xmlns="http://www.topografix.com/GPX/1/1" xmlns:xsi="http://www.w3.org/2001/XMLSchema-instance" xsi:schemaLocation="http://www.topografix.com/GPX/1/1 http://www.topografix.com/GPX/1/1/gpx.xsd" version="1.1" creator="VisuGPX - https://www.visugpx.com">
  <metadata>
    <name>Col de la Haugade 2378 m depuis le refuge d'Ilhéou</name>
    <desc><![CDATA[Objectif à partir du refuge d'Ilhéou.
Point de passage obligé pour la liaision refuge d'Ilhéou - refuge Wallon
On s'arretera au collet inférieur 2311 si on envisage les sommets du soum de la Héougade et le pic de Nets.

[url=http://eal-rando.blogspot.fr/2013/08/col-de-la-haugade-2378m.html]voir rando[/url] 
]]></desc>
  </metadata>
  <trk>
    <name><![CDATA[CAMBASQUE PKNP ESPBGNE]]></name>
    <desc><![CDATA[Total: 2.5km]]></desc>
    <trkseg>
      <trkpt lat="42.8661" lon="-0.17353">
        <ele>1976.13</ele>
        <time>2013-08-11T08:00:55Z</time>
      </trkpt>
      <trkpt lat="42.86604" lon="-0.17362">
        <ele>1973.72</ele>
        <time>2013-08-11T08:01:07Z</time>
      </trkpt>
      <trkpt lat="42.86602" lon="-0.17365">
        <ele>1973.24</ele>
        <time>2013-08-11T08:01:11Z</time>
      </trkpt>
      <trkpt lat="42.86601" lon="-0.17367">
        <ele>1972.76</ele>
        <time>2013-08-11T08:01:15Z</time>
      </trkpt>
      <trkpt lat="42.86591" lon="-0.17368">
        <ele>1970.84</ele>
        <time>2013-08-11T08:01:28Z</time>
      </trkpt>
      <trkpt lat="42.86574" lon="-0.17366">
        <ele>1969.4</ele>
        <time>2013-08-11T08:01:43Z</time>
      </trkpt>
      <trkpt lat="42.86571" lon="-0.17366">
        <ele>1969.4</ele>
        <time>2013-08-11T08:01:45Z</time>
      </trkpt>
      <trkpt lat="42.86555" lon="-0.17358">
        <ele>1967.48</ele>
        <time>2013-08-11T08:02:01Z</time>
      </trkpt>
      <trkpt lat="42.86549" lon="-0.17351">
        <ele>1966.51</ele>
        <time>2013-08-11T08:02:09Z</time>
      </trkpt>
      <trkpt lat="42.86542" lon="-0.17351">
        <ele>1966.51</ele>
        <time>2013-08-11T08:02:18Z</time>
      </trkpt>
      <trkpt lat="42.86535" lon="-0.17354">
        <ele>1967.48</ele>
        <time>2013-08-11T08:02:26Z</time>
      </trkpt>
      <trkpt lat="42.86533" lon="-0.17352">
        <ele>1968.92</ele>
        <time>2013-08-11T08:02:32Z</time>
      </trkpt>
      <trkpt lat="42.86532" lon="-0.17352">
        <ele>1969.88</ele>
        <time>2013-08-11T08:02:36Z</time>
      </trkpt>
      <trkpt lat="42.86519" lon="-0.17348">
        <ele>1968.92</ele>
        <time>2013-08-11T08:02:51Z</time>
      </trkpt>
      <trkpt lat="42.8651" lon="-0.17357">
        <ele>1969.4</ele>
        <time>2013-08-11T08:03:06Z</time>
      </trkpt>
      <trkpt lat="42.86506" lon="-0.17363">
        <ele>1970.36</ele>
        <time>2013-08-11T08:03:13Z</time>
      </trkpt>
      <trkpt lat="42.86503" lon="-0.17369">
        <ele>1970.36</ele>
        <time>2013-08-11T08:03:18Z</time>
      </trkpt>
      <trkpt lat="42.86498" lon="-0.17385">
        <ele>1969.88</ele>
        <time>2013-08-11T08:03:31Z</time>
      </trkpt>
      <trkpt lat="42.86491" lon="-0.17396">
        <ele>1970.84</ele>
        <time>2013-08-11T08:03:44Z</time>
      </trkpt>
      <trkpt lat="42.86483" lon="-0.17405">
        <ele>1971.8</ele>
        <time>2013-08-11T08:03:56Z</time>
      </trkpt>
      <trkpt lat="42.86476" lon="-0.17417">
        <ele>1971.32</ele>
        <time>2013-08-11T08:04:09Z</time>
      </trkpt>
      <trkpt lat="42.86469" lon="-0.17425">
        <ele>1971.8</ele>
        <time>2013-08-11T08:04:20Z</time>
      </trkpt>
      <trkpt lat="42.86464" lon="-0.17431">
        <ele>1972.28</ele>
        <time>2013-08-11T08:04:30Z</time>
      </trkpt>
      <trkpt lat="42.86455" lon="-0.17438">
        <ele>1972.28</ele>
        <time>2013-08-11T08:04:45Z</time>
      </trkpt>
      <trkpt lat="42.86446" lon="-0.17442">
        <ele>1971.8</ele>
        <time>2013-08-11T08:04:56Z</time>
      </trkpt>
      <trkpt lat="42.86438" lon="-0.17443">
        <ele>1972.28</ele>
        <time>2013-08-11T08:05:05Z</time>
      </trkpt>
      <trkpt lat="42.86429" lon="-0.17445">
        <ele>1973.24</ele>
        <time>2013-08-11T08:05:17Z</time>
      </trkpt>
      <trkpt lat="42.86422" lon="-0.17453">
        <ele>1974.2</ele>
        <time>2013-08-11T08:05:30Z</time>
      </trkpt>
      <trkpt lat="42.86418" lon="-0.17459">
        <ele>1974.2</ele>
        <time>2013-08-11T08:05:40Z</time>
      </trkpt>
      <trkpt lat="42.8641" lon="-0.17466">
        <ele>1973.72</ele>
        <time>2013-08-11T08:05:51Z</time>
      </trkpt>
      <trkpt lat="42.86408" lon="-0.17467">
        <ele>1974.2</ele>
        <time>2013-08-11T08:05:53Z</time>
      </trkpt>
      <trkpt lat="42.86401" lon="-0.17472">
        <ele>1974.69</ele>
        <time>2013-08-11T08:06:02Z</time>
      </trkpt>
      <trkpt lat="42.86392" lon="-0.17481">
        <ele>1973.72</ele>
        <time>2013-08-11T08:06:14Z</time>
      </trkpt>
      <trkpt lat="42.86391" lon="-0.17482">
        <ele>1974.2</ele>
        <time>2013-08-11T08:06:15Z</time>
      </trkpt>
      <trkpt lat="42.86383" lon="-0.17489">
        <ele>1973.24</ele>
        <time>2013-08-11T08:06:24Z</time>
      </trkpt>
      <trkpt lat="42.86379" lon="-0.17499">
        <ele>1973.72</ele>
        <time>2013-08-11T08:06:34Z</time>
      </trkpt>
      <trkpt lat="42.86376" lon="-0.175">
        <ele>1973.72</ele>
        <time>2013-08-11T08:06:37Z</time>
      </trkpt>
      <trkpt lat="42.86373" lon="-0.17502">
        <ele>1973.72</ele>
        <time>2013-08-11T08:06:43Z</time>
      </trkpt>
      <trkpt lat="42.86372" lon="-0.17503">
        <ele>1973.24</ele>
        <time>2013-08-11T08:06:45Z</time>
      </trkpt>
      <trkpt lat="42.86367" lon="-0.17504">
        <ele>1973.72</ele>
        <time>2013-08-11T08:06:56Z</time>
      </trkpt>
      <trkpt lat="42.86367" lon="-0.17504">
        <ele>1973.72</ele>
        <time>2013-08-11T08:07:00Z</time>
      </trkpt>
      <trkpt lat="42.86366" lon="-0.17504">
        <ele>1973.24</ele>
        <time>2013-08-11T08:07:03Z</time>
      </trkpt>
      <trkpt lat="42.86364" lon="-0.17503">
        <ele>1973.72</ele>
        <time>2013-08-11T08:07:05Z</time>
      </trkpt>
      <trkpt lat="42.86352" lon="-0.17505">
        <ele>1973.24</ele>
        <time>2013-08-11T08:07:19Z</time>
      </trkpt>
      <trkpt lat="42.86347" lon="-0.17507">
        <ele>1974.2</ele>
        <time>2013-08-11T08:07:24Z</time>
      </trkpt>
      <trkpt lat="42.86339" lon="-0.17507">
        <ele>1974.69</ele>
        <time>2013-08-11T08:07:32Z</time>
      </trkpt>
      <trkpt lat="42.86338" lon="-0.17509">
        <ele>1975.17</ele>
        <time>2013-08-11T08:07:34Z</time>
      </trkpt>
      <trkpt lat="42.86332" lon="-0.17509">
        <ele>1976.61</ele>
        <time>2013-08-11T08:07:44Z</time>
      </trkpt>
      <trkpt lat="42.8633" lon="-0.1751">
        <ele>1977.09</ele>
        <time>2013-08-11T08:07:47Z</time>
      </trkpt>
      <trkpt lat="42.86327" lon="-0.1751">
        <ele>1977.57</ele>
        <time>2013-08-11T08:07:50Z</time>
      </trkpt>
      <trkpt lat="42.86323" lon="-0.17511">
        <ele>1978.05</ele>
        <time>2013-08-11T08:08:00Z</time>
      </trkpt>
      <trkpt lat="42.86322" lon="-0.17513">
        <ele>1978.05</ele>
        <time>2013-08-11T08:08:10Z</time>
      </trkpt>
      <trkpt lat="42.86317" lon="-0.17519">
        <ele>1978.53</ele>
        <time>2013-08-11T08:08:18Z</time>
      </trkpt>
      <trkpt lat="42.86314" lon="-0.17523">
        <ele>1979.49</ele>
        <time>2013-08-11T08:08:22Z</time>
      </trkpt>
      <trkpt lat="42.86313" lon="-0.17528">
        <ele>1979.01</ele>
        <time>2013-08-11T08:08:25Z</time>
      </trkpt>
      <trkpt lat="42.86306" lon="-0.17532">
        <ele>1979.01</ele>
        <time>2013-08-11T08:08:36Z</time>
      </trkpt>
      <trkpt lat="42.86304" lon="-0.17531">
        <ele>1979.97</ele>
        <time>2013-08-11T08:08:39Z</time>
      </trkpt>
      <trkpt lat="42.86294" lon="-0.17531">
        <ele>1979.01</ele>
        <time>2013-08-11T08:08:51Z</time>
      </trkpt>
      <trkpt lat="42.86288" lon="-0.17534">
        <ele>1978.05</ele>
        <time>2013-08-11T08:09:03Z</time>
      </trkpt>
      <trkpt lat="42.86288" lon="-0.17534">
        <ele>1977.57</ele>
        <time>2013-08-11T08:09:07Z</time>
      </trkpt>
      <trkpt lat="42.86284" lon="-0.17535">
        <ele>1977.09</ele>
        <time>2013-08-11T08:09:15Z</time>
      </trkpt>
      <trkpt lat="42.86278" lon="-0.17536">
        <ele>1976.61</ele>
        <time>2013-08-11T08:09:25Z</time>
      </trkpt>
      <trkpt lat="42.86269" lon="-0.17537">
        <ele>1976.61</ele>
        <time>2013-08-11T08:09:36Z</time>
      </trkpt>
      <trkpt lat="42.86267" lon="-0.17541">
        <ele>1976.13</ele>
        <time>2013-08-11T08:09:39Z</time>
      </trkpt>
      <trkpt lat="42.86259" lon="-0.17548">
        <ele>1974.69</ele>
        <time>2013-08-11T08:09:51Z</time>
      </trkpt>
      <trkpt lat="42.86255" lon="-0.17554">
        <ele>1974.2</ele>
        <time>2013-08-11T08:10:04Z</time>
      </trkpt>
      <trkpt lat="42.8625" lon="-0.17556">
        <ele>1974.69</ele>
        <time>2013-08-11T08:10:12Z</time>
      </trkpt>
      <trkpt lat="42.86244" lon="-0.17563">
        <ele>1974.2</ele>
        <time>2013-08-11T08:10:23Z</time>
      </trkpt>
      <trkpt lat="42.86242" lon="-0.17569">
        <ele>1976.13</ele>
        <time>2013-08-11T08:10:33Z</time>
      </trkpt>
      <trkpt lat="42.86239" lon="-0.17583">
        <ele>1977.09</ele>
        <time>2013-08-11T08:10:44Z</time>
      </trkpt>
      <trkpt lat="42.86234" lon="-0.17597">
        <ele>1978.53</ele>
        <time>2013-08-11T08:10:57Z</time>
      </trkpt>
      <trkpt lat="42.86231" lon="-0.17609">
        <ele>1977.57</ele>
        <time>2013-08-11T08:11:07Z</time>
      </trkpt>
      <trkpt lat="42.86224" lon="-0.17613">
        <ele>1978.53</ele>
        <time>2013-08-11T08:11:16Z</time>
      </trkpt>
      <trkpt lat="42.86217" lon="-0.17611">
        <ele>1978.53</ele>
        <time>2013-08-11T08:11:30Z</time>
      </trkpt>
      <trkpt lat="42.86215" lon="-0.17608">
        <ele>1978.05</ele>
        <time>2013-08-11T08:11:33Z</time>
      </trkpt>
      <trkpt lat="42.86214" lon="-0.17602">
        <ele>1977.57</ele>
        <time>2013-08-11T08:11:37Z</time>
      </trkpt>
      <trkpt lat="42.86209" lon="-0.17591">
        <ele>1978.53</ele>
        <time>2013-08-11T08:11:50Z</time>
      </trkpt>
      <trkpt lat="42.86206" lon="-0.17589">
        <ele>1979.01</ele>
        <time>2013-08-11T08:11:56Z</time>
      </trkpt>
      <trkpt lat="42.862" lon="-0.17585">
        <ele>1979.97</ele>
        <time>2013-08-11T08:12:05Z</time>
      </trkpt>
      <trkpt lat="42.86198" lon="-0.17583">
        <ele>1980.93</ele>
        <time>2013-08-11T08:12:08Z</time>
      </trkpt>
      <trkpt lat="42.86198" lon="-0.17583">
        <ele>1981.41</ele>
        <time>2013-08-11T08:12:09Z</time>
      </trkpt>
      <trkpt lat="42.86195" lon="-0.17578">
        <ele>1983.34</ele>
        <time>2013-08-11T08:12:20Z</time>
      </trkpt>
      <trkpt lat="42.86191" lon="-0.17577">
        <ele>1984.3</ele>
        <time>2013-08-11T08:12:31Z</time>
      </trkpt>
      <trkpt lat="42.86189" lon="-0.17576">
        <ele>1984.78</ele>
        <time>2013-08-11T08:12:35Z</time>
      </trkpt>
      <trkpt lat="42.86183" lon="-0.1758">
        <ele>1985.74</ele>
        <time>2013-08-11T08:12:46Z</time>
      </trkpt>
      <trkpt lat="42.8618" lon="-0.17579">
        <ele>1987.18</ele>
        <time>2013-08-11T08:12:56Z</time>
      </trkpt>
      <trkpt lat="42.86179" lon="-0.1758">
        <ele>1987.18</ele>
        <time>2013-08-11T08:12:57Z</time>
      </trkpt>
      <trkpt lat="42.86172" lon="-0.17582">
        <ele>1988.14</ele>
        <time>2013-08-11T08:13:09Z</time>
      </trkpt>
      <trkpt lat="42.8617" lon="-0.17584">
        <ele>1989.1</ele>
        <time>2013-08-11T08:13:19Z</time>
      </trkpt>
      <trkpt lat="42.86164" lon="-0.17585">
        <ele>1990.07</ele>
        <time>2013-08-11T08:13:29Z</time>
      </trkpt>
      <trkpt lat="42.86157" lon="-0.17584">
        <ele>1991.03</ele>
        <time>2013-08-11T08:13:41Z</time>
      </trkpt>
      <trkpt lat="42.86155" lon="-0.17585">
        <ele>1991.99</ele>
        <time>2013-08-11T08:13:46Z</time>
      </trkpt>
      <trkpt lat="42.86151" lon="-0.17582">
        <ele>1993.43</ele>
        <time>2013-08-11T08:13:56Z</time>
      </trkpt>
      <trkpt lat="42.8615" lon="-0.17583">
        <ele>1993.91</ele>
        <time>2013-08-11T08:13:59Z</time>
      </trkpt>
      <trkpt lat="42.86147" lon="-0.17584">
        <ele>1994.39</ele>
        <time>2013-08-11T08:14:10Z</time>
      </trkpt>
      <trkpt lat="42.86142" lon="-0.17583">
        <ele>1995.83</ele>
        <time>2013-08-11T08:14:22Z</time>
      </trkpt>
      <trkpt lat="42.8614" lon="-0.17582">
        <ele>1997.76</ele>
        <time>2013-08-11T08:14:35Z</time>
      </trkpt>
      <trkpt lat="42.86135" lon="-0.17582">
        <ele>1998.72</ele>
        <time>2013-08-11T08:14:45Z</time>
      </trkpt>
      <trkpt lat="42.86131" lon="-0.17582">
        <ele>1999.68</ele>
        <time>2013-08-11T08:14:54Z</time>
      </trkpt>
      <trkpt lat="42.86128" lon="-0.17581">
        <ele>2000.64</ele>
        <time>2013-08-11T08:15:04Z</time>
      </trkpt>
      <trkpt lat="42.86124" lon="-0.17582">
        <ele>2001.6</ele>
        <time>2013-08-11T08:15:18Z</time>
      </trkpt>
      <trkpt lat="42.86124" lon="-0.17581">
        <ele>2002.08</ele>
        <time>2013-08-11T08:15:35Z</time>
      </trkpt>
      <trkpt lat="42.86127" lon="-0.17578">
        <ele>2003.52</ele>
        <time>2013-08-11T08:15:49Z</time>
      </trkpt>
      <trkpt lat="42.86134" lon="-0.17571">
        <ele>2004.97</ele>
        <time>2013-08-11T08:16:04Z</time>
      </trkpt>
      <trkpt lat="42.86135" lon="-0.17564">
        <ele>2005.93</ele>
        <time>2013-08-11T08:16:18Z</time>
      </trkpt>
      <trkpt lat="42.86134" lon="-0.17564">
        <ele>2006.41</ele>
        <time>2013-08-11T08:16:19Z</time>
      </trkpt>
      <trkpt lat="42.86128" lon="-0.17567">
        <ele>2006.89</ele>
        <time>2013-08-11T08:16:30Z</time>
      </trkpt>
      <trkpt lat="42.86123" lon="-0.17568">
        <ele>2007.85</ele>
        <time>2013-08-11T08:16:40Z</time>
      </trkpt>
      <trkpt lat="42.86114" lon="-0.17572">
        <ele>2008.81</ele>
        <time>2013-08-11T08:16:52Z</time>
      </trkpt>
      <trkpt lat="42.86107" lon="-0.17576">
        <ele>2009.77</ele>
        <time>2013-08-11T08:17:04Z</time>
      </trkpt>
      <trkpt lat="42.86101" lon="-0.17581">
        <ele>2010.73</ele>
        <time>2013-08-11T08:17:17Z</time>
      </trkpt>
      <trkpt lat="42.86092" lon="-0.17585">
        <ele>2012.18</ele>
        <time>2013-08-11T08:17:29Z</time>
      </trkpt>
      <trkpt lat="42.86087" lon="-0.1759">
        <ele>2013.14</ele>
        <time>2013-08-11T08:17:39Z</time>
      </trkpt>
      <trkpt lat="42.8608" lon="-0.17595">
        <ele>2013.62</ele>
        <time>2013-08-11T08:17:52Z</time>
      </trkpt>
      <trkpt lat="42.86075" lon="-0.17595">
        <ele>2015.54</ele>
        <time>2013-08-11T08:18:04Z</time>
      </trkpt>
      <trkpt lat="42.8607" lon="-0.17596">
        <ele>2016.5</ele>
        <time>2013-08-11T08:18:19Z</time>
      </trkpt>
      <trkpt lat="42.86066" lon="-0.176">
        <ele>2018.43</ele>
        <time>2013-08-11T08:18:33Z</time>
      </trkpt>
      <trkpt lat="42.8607" lon="-0.17592">
        <ele>2019.87</ele>
        <time>2013-08-11T08:18:49Z</time>
      </trkpt>
      <trkpt lat="42.86071" lon="-0.17586">
        <ele>2021.79</ele>
        <time>2013-08-11T08:19:03Z</time>
      </trkpt>
      <trkpt lat="42.86074" lon="-0.17581">
        <ele>2022.75</ele>
        <time>2013-08-11T08:19:18Z</time>
      </trkpt>
      <trkpt lat="42.86078" lon="-0.17578">
        <ele>2023.71</ele>
        <time>2013-08-11T08:19:28Z</time>
      </trkpt>
      <trkpt lat="42.86079" lon="-0.17575">
        <ele>2025.64</ele>
        <time>2013-08-11T08:19:41Z</time>
      </trkpt>
      <trkpt lat="42.86083" lon="-0.17568">
        <ele>2026.12</ele>
        <time>2013-08-11T08:19:51Z</time>
      </trkpt>
      <trkpt lat="42.86086" lon="-0.17559">
        <ele>2027.56</ele>
        <time>2013-08-11T08:20:02Z</time>
      </trkpt>
      <trkpt lat="42.8609" lon="-0.17552">
        <ele>2028.04</ele>
        <time>2013-08-11T08:20:15Z</time>
      </trkpt>
      <trkpt lat="42.86092" lon="-0.17548">
        <ele>2029.48</ele>
        <time>2013-08-11T08:20:25Z</time>
      </trkpt>
      <trkpt lat="42.86097" lon="-0.17543">
        <ele>2030.44</ele>
        <time>2013-08-11T08:20:39Z</time>
      </trkpt>
      <trkpt lat="42.86103" lon="-0.17539">
        <ele>2031.88</ele>
        <time>2013-08-11T08:20:51Z</time>
      </trkpt>
      <trkpt lat="42.86107" lon="-0.17533">
        <ele>2032.84</ele>
        <time>2013-08-11T08:21:04Z</time>
      </trkpt>
      <trkpt lat="42.86112" lon="-0.17532">
        <ele>2032.84</ele>
        <time>2013-08-11T08:21:16Z</time>
      </trkpt>
      <trkpt lat="42.86115" lon="-0.17527">
        <ele>2033.81</ele>
        <time>2013-08-11T08:21:25Z</time>
      </trkpt>
      <trkpt lat="42.86119" lon="-0.17525">
        <ele>2034.29</ele>
        <time>2013-08-11T08:21:36Z</time>
      </trkpt>
      <trkpt lat="42.86121" lon="-0.17521">
        <ele>2034.77</ele>
        <time>2013-08-11T08:21:44Z</time>
      </trkpt>
      <trkpt lat="42.86122" lon="-0.17518">
        <ele>2036.69</ele>
        <time>2013-08-11T08:21:54Z</time>
      </trkpt>
      <trkpt lat="42.86119" lon="-0.17515">
        <ele>2037.65</ele>
        <time>2013-08-11T08:22:06Z</time>
      </trkpt>
      <trkpt lat="42.86119" lon="-0.17515">
        <ele>2038.13</ele>
        <time>2013-08-11T08:22:28Z</time>
      </trkpt>
      <trkpt lat="42.86114" lon="-0.17506">
        <ele>2038.61</ele>
        <time>2013-08-11T08:22:42Z</time>
      </trkpt>
      <trkpt lat="42.86114" lon="-0.17506">
        <ele>2039.57</ele>
        <time>2013-08-11T08:22:52Z</time>
      </trkpt>
      <trkpt lat="42.86108" lon="-0.17504">
        <ele>2039.57</ele>
        <time>2013-08-11T08:23:03Z</time>
      </trkpt>
      <trkpt lat="42.86101" lon="-0.17504">
        <ele>2041.5</ele>
        <time>2013-08-11T08:23:19Z</time>
      </trkpt>
      <trkpt lat="42.86098" lon="-0.17505">
        <ele>2042.94</ele>
        <time>2013-08-11T08:23:33Z</time>
      </trkpt>
      <trkpt lat="42.86092" lon="-0.1751">
        <ele>2044.86</ele>
        <time>2013-08-11T08:23:50Z</time>
      </trkpt>
      <trkpt lat="42.86086" lon="-0.1751">
        <ele>2045.82</ele>
        <time>2013-08-11T08:24:03Z</time>
      </trkpt>
      <trkpt lat="42.86085" lon="-0.17511">
        <ele>2047.26</ele>
        <time>2013-08-11T08:24:19Z</time>
      </trkpt>
      <trkpt lat="42.86076" lon="-0.17513">
        <ele>2049.19</ele>
        <time>2013-08-11T08:24:33Z</time>
      </trkpt>
      <trkpt lat="42.86071" lon="-0.17514">
        <ele>2050.15</ele>
        <time>2013-08-11T08:24:43Z</time>
      </trkpt>
      <trkpt lat="42.86065" lon="-0.17517">
        <ele>2051.59</ele>
        <time>2013-08-11T08:24:57Z</time>
      </trkpt>
      <trkpt lat="42.86062" lon="-0.17519">
        <ele>2053.03</ele>
        <time>2013-08-11T08:25:12Z</time>
      </trkpt>
      <trkpt lat="42.86058" lon="-0.1752">
        <ele>2053.99</ele>
        <time>2013-08-11T08:25:24Z</time>
      </trkpt>
      <trkpt lat="42.86053" lon="-0.17521">
        <ele>2055.44</ele>
        <time>2013-08-11T08:25:38Z</time>
      </trkpt>
      <trkpt lat="42.86049" lon="-0.17522">
        <ele>2055.92</ele>
        <time>2013-08-11T08:25:51Z</time>
      </trkpt>
      <trkpt lat="42.86048" lon="-0.17523">
        <ele>2057.36</ele>
        <time>2013-08-11T08:26:08Z</time>
      </trkpt>
      <trkpt lat="42.86043" lon="-0.17524">
        <ele>2058.8</ele>
        <time>2013-08-11T08:26:24Z</time>
      </trkpt>
      <trkpt lat="42.86036" lon="-0.17526">
        <ele>2059.76</ele>
        <time>2013-08-11T08:26:38Z</time>
      </trkpt>
      <trkpt lat="42.86031" lon="-0.17529">
        <ele>2060.24</ele>
        <time>2013-08-11T08:26:49Z</time>
      </trkpt>
      <trkpt lat="42.86024" lon="-0.17531">
        <ele>2061.2</ele>
        <time>2013-08-11T08:27:05Z</time>
      </trkpt>
      <trkpt lat="42.86018" lon="-0.1753">
        <ele>2062.65</ele>
        <time>2013-08-11T08:27:21Z</time>
      </trkpt>
      <trkpt lat="42.86013" lon="-0.17532">
        <ele>2064.57</ele>
        <time>2013-08-11T08:27:36Z</time>
      </trkpt>
      <trkpt lat="42.86008" lon="-0.17533">
        <ele>2065.05</ele>
        <time>2013-08-11T08:27:51Z</time>
      </trkpt>
      <trkpt lat="42.85999" lon="-0.17534">
        <ele>2066.49</ele>
        <time>2013-08-11T08:28:04Z</time>
      </trkpt>
      <trkpt lat="42.85992" lon="-0.17536">
        <ele>2067.93</ele>
        <time>2013-08-11T08:28:17Z</time>
      </trkpt>
      <trkpt lat="42.85988" lon="-0.17536">
        <ele>2069.38</ele>
        <time>2013-08-11T08:28:30Z</time>
      </trkpt>
      <trkpt lat="42.85984" lon="-0.17536">
        <ele>2070.34</ele>
        <time>2013-08-11T08:28:43Z</time>
      </trkpt>
      <trkpt lat="42.85978" lon="-0.17534">
        <ele>2072.26</ele>
        <time>2013-08-11T08:28:57Z</time>
      </trkpt>
      <trkpt lat="42.85972" lon="-0.17532">
        <ele>2072.26</ele>
        <time>2013-08-11T08:29:08Z</time>
      </trkpt>
      <trkpt lat="42.85965" lon="-0.17532">
        <ele>2073.22</ele>
        <time>2013-08-11T08:29:21Z</time>
      </trkpt>
      <trkpt lat="42.85958" lon="-0.17532">
        <ele>2073.7</ele>
        <time>2013-08-11T08:29:33Z</time>
      </trkpt>
      <trkpt lat="42.85952" lon="-0.1753">
        <ele>2075.14</ele>
        <time>2013-08-11T08:29:44Z</time>
      </trkpt>
      <trkpt lat="42.85948" lon="-0.17532">
        <ele>2076.1</ele>
        <time>2013-08-11T08:29:57Z</time>
      </trkpt>
      <trkpt lat="42.85944" lon="-0.17532">
        <ele>2077.07</ele>
        <time>2013-08-11T08:30:10Z</time>
      </trkpt>
      <trkpt lat="42.85937" lon="-0.17533">
        <ele>2077.55</ele>
        <time>2013-08-11T08:30:21Z</time>
      </trkpt>
      <trkpt lat="42.85934" lon="-0.17531">
        <ele>2078.99</ele>
        <time>2013-08-11T08:30:32Z</time>
      </trkpt>
      <trkpt lat="42.85929" lon="-0.1753">
        <ele>2079.95</ele>
        <time>2013-08-11T08:30:45Z</time>
      </trkpt>
      <trkpt lat="42.85926" lon="-0.17532">
        <ele>2080.91</ele>
        <time>2013-08-11T08:30:56Z</time>
      </trkpt>
      <trkpt lat="42.85925" lon="-0.17532">
        <ele>2081.87</ele>
        <time>2013-08-11T08:31:09Z</time>
      </trkpt>
      <trkpt lat="42.85923" lon="-0.17532">
        <ele>2082.35</ele>
        <time>2013-08-11T08:31:20Z</time>
      </trkpt>
      <trkpt lat="42.85919" lon="-0.17531">
        <ele>2083.31</ele>
        <time>2013-08-11T08:31:33Z</time>
      </trkpt>
      <trkpt lat="42.85913" lon="-0.17535">
        <ele>2084.28</ele>
        <time>2013-08-11T08:31:45Z</time>
      </trkpt>
      <trkpt lat="42.85908" lon="-0.17536">
        <ele>2084.76</ele>
        <time>2013-08-11T08:32:00Z</time>
      </trkpt>
      <trkpt lat="42.85906" lon="-0.17538">
        <ele>2085.24</ele>
        <time>2013-08-11T08:32:04Z</time>
      </trkpt>
      <trkpt lat="42.85901" lon="-0.1754">
        <ele>2087.16</ele>
        <time>2013-08-11T08:32:16Z</time>
      </trkpt>
      <trkpt lat="42.85896" lon="-0.17544">
        <ele>2087.64</ele>
        <time>2013-08-11T08:32:30Z</time>
      </trkpt>
      <trkpt lat="42.85893" lon="-0.17546">
        <ele>2089.08</ele>
        <time>2013-08-11T08:32:41Z</time>
      </trkpt>
      <trkpt lat="42.85888" lon="-0.17549">
        <ele>2090.52</ele>
        <time>2013-08-11T08:32:54Z</time>
      </trkpt>
      <trkpt lat="42.85883" lon="-0.17551">
        <ele>2091.49</ele>
        <time>2013-08-11T08:33:06Z</time>
      </trkpt>
      <trkpt lat="42.85882" lon="-0.17551">
        <ele>2091.97</ele>
        <time>2013-08-11T08:33:18Z</time>
      </trkpt>
      <trkpt lat="42.8588" lon="-0.17549">
        <ele>2093.89</ele>
        <time>2013-08-11T08:33:30Z</time>
      </trkpt>
      <trkpt lat="42.85879" lon="-0.17549">
        <ele>2093.89</ele>
        <time>2013-08-11T08:33:50Z</time>
      </trkpt>
      <trkpt lat="42.85879" lon="-0.17549">
        <ele>2094.37</ele>
        <time>2013-08-11T08:34:04Z</time>
      </trkpt>
      <trkpt lat="42.85877" lon="-0.17549">
        <ele>2096.29</ele>
        <time>2013-08-11T08:34:17Z</time>
      </trkpt>
      <trkpt lat="42.85874" lon="-0.1755">
        <ele>2096.77</ele>
        <time>2013-08-11T08:34:28Z</time>
      </trkpt>
      <trkpt lat="42.85869" lon="-0.17551">
        <ele>2097.73</ele>
        <time>2013-08-11T08:34:37Z</time>
      </trkpt>
      <trkpt lat="42.85868" lon="-0.17551">
        <ele>2099.18</ele>
        <time>2013-08-11T08:34:48Z</time>
      </trkpt>
      <trkpt lat="42.85868" lon="-0.17551">
        <ele>2100.14</ele>
        <time>2013-08-11T08:35:01Z</time>
      </trkpt>
      <trkpt lat="42.8586" lon="-0.17555">
        <ele>2101.1</ele>
        <time>2013-08-11T08:35:14Z</time>
      </trkpt>
      <trkpt lat="42.85856" lon="-0.17555">
        <ele>2100.62</ele>
        <time>2013-08-11T08:35:19Z</time>
      </trkpt>
      <trkpt lat="42.8585" lon="-0.17558">
        <ele>2101.58</ele>
        <time>2013-08-11T08:35:30Z</time>
      </trkpt>
      <trkpt lat="42.85847" lon="-0.17559">
        <ele>2101.58</ele>
        <time>2013-08-11T08:35:40Z</time>
      </trkpt>
      <trkpt lat="42.8584" lon="-0.17562">
        <ele>2100.62</ele>
        <time>2013-08-11T08:35:52Z</time>
      </trkpt>
      <trkpt lat="42.85836" lon="-0.1757">
        <ele>2100.14</ele>
        <time>2013-08-11T08:36:01Z</time>
      </trkpt>
      <trkpt lat="42.8583" lon="-0.17575">
        <ele>2099.66</ele>
        <time>2013-08-11T08:36:12Z</time>
      </trkpt>
      <trkpt lat="42.85821" lon="-0.17581">
        <ele>2100.14</ele>
        <time>2013-08-11T08:36:26Z</time>
      </trkpt>
      <trkpt lat="42.85819" lon="-0.17583">
        <ele>2100.62</ele>
        <time>2013-08-11T08:36:38Z</time>
      </trkpt>
      <trkpt lat="42.85821" lon="-0.17582">
        <ele>2100.62</ele>
        <time>2013-08-11T08:36:59Z</time>
      </trkpt>
      <trkpt lat="42.85821" lon="-0.17582">
        <ele>2101.1</ele>
        <time>2013-08-11T08:37:20Z</time>
      </trkpt>
      <trkpt lat="42.85821" lon="-0.17582">
        <ele>2102.06</ele>
        <time>2013-08-11T08:37:38Z</time>
      </trkpt>
      <trkpt lat="42.85821" lon="-0.17582">
        <ele>2105.91</ele>
        <time>2013-08-11T08:37:44Z</time>
      </trkpt>
      <trkpt lat="42.85821" lon="-0.17582">
        <ele>2099.66</ele>
        <time>2013-08-11T08:37:45Z</time>
      </trkpt>
      <trkpt lat="42.85821" lon="-0.17582">
        <ele>2101.1</ele>
        <time>2013-08-11T08:38:13Z</time>
      </trkpt>
      <trkpt lat="42.85818" lon="-0.17581">
        <ele>2101.1</ele>
        <time>2013-08-11T08:38:39Z</time>
      </trkpt>
      <trkpt lat="42.85818" lon="-0.17581">
        <ele>2101.58</ele>
        <time>2013-08-11T08:38:54Z</time>
      </trkpt>
      <trkpt lat="42.85812" lon="-0.17585">
        <ele>2102.54</ele>
        <time>2013-08-11T08:39:07Z</time>
      </trkpt>
      <trkpt lat="42.85806" lon="-0.17587">
        <ele>2103.02</ele>
        <time>2013-08-11T08:39:17Z</time>
      </trkpt>
      <trkpt lat="42.85801" lon="-0.17589">
        <ele>2104.46</ele>
        <time>2013-08-11T08:39:28Z</time>
      </trkpt>
      <trkpt lat="42.85797" lon="-0.17589">
        <ele>2105.91</ele>
        <time>2013-08-11T08:39:39Z</time>
      </trkpt>
      <trkpt lat="42.85797" lon="-0.17587">
        <ele>2107.35</ele>
        <time>2013-08-11T08:39:51Z</time>
      </trkpt>
      <trkpt lat="42.85795" lon="-0.17585">
        <ele>2108.31</ele>
        <time>2013-08-11T08:40:05Z</time>
      </trkpt>
      <trkpt lat="42.85794" lon="-0.1758">
        <ele>2110.23</ele>
        <time>2013-08-11T08:40:19Z</time>
      </trkpt>
      <trkpt lat="42.85794" lon="-0.17577">
        <ele>2111.19</ele>
        <time>2013-08-11T08:40:32Z</time>
      </trkpt>
      <trkpt lat="42.85792" lon="-0.17574">
        <ele>2112.15</ele>
        <time>2013-08-11T08:40:47Z</time>
      </trkpt>
      <trkpt lat="42.85791" lon="-0.17573">
        <ele>2113.12</ele>
        <time>2013-08-11T08:40:58Z</time>
      </trkpt>
      <trkpt lat="42.85791" lon="-0.17573">
        <ele>2115.52</ele>
        <time>2013-08-11T08:41:13Z</time>
      </trkpt>
      <trkpt lat="42.85791" lon="-0.17573">
        <ele>2115.52</ele>
        <time>2013-08-11T08:41:20Z</time>
      </trkpt>
      <trkpt lat="42.85788" lon="-0.17572">
        <ele>2116.96</ele>
        <time>2013-08-11T08:41:32Z</time>
      </trkpt>
      <trkpt lat="42.85788" lon="-0.17572">
        <ele>2117.44</ele>
        <time>2013-08-11T08:41:42Z</time>
      </trkpt>
      <trkpt lat="42.85788" lon="-0.17572">
        <ele>2117.92</ele>
        <time>2013-08-11T08:41:55Z</time>
      </trkpt>
      <trkpt lat="42.85788" lon="-0.17572">
        <ele>2118.88</ele>
        <time>2013-08-11T08:41:58Z</time>
      </trkpt>
      <trkpt lat="42.85786" lon="-0.1757">
        <ele>2118.88</ele>
        <time>2013-08-11T08:42:01Z</time>
      </trkpt>
      <trkpt lat="42.85775" lon="-0.17568">
        <ele>2118.88</ele>
        <time>2013-08-11T08:42:12Z</time>
      </trkpt>
      <trkpt lat="42.85766" lon="-0.17574">
        <ele>2120.32</ele>
        <time>2013-08-11T08:42:23Z</time>
      </trkpt>
      <trkpt lat="42.85761" lon="-0.17575">
        <ele>2121.29</ele>
        <time>2013-08-11T08:42:33Z</time>
      </trkpt>
      <trkpt lat="42.85758" lon="-0.17577">
        <ele>2121.77</ele>
        <time>2013-08-11T08:42:45Z</time>
      </trkpt>
      <trkpt lat="42.85753" lon="-0.17584">
        <ele>2122.73</ele>
        <time>2013-08-11T08:42:57Z</time>
      </trkpt>
      <trkpt lat="42.85751" lon="-0.17589">
        <ele>2123.69</ele>
        <time>2013-08-11T08:43:11Z</time>
      </trkpt>
      <trkpt lat="42.8575" lon="-0.176">
        <ele>2124.65</ele>
        <time>2013-08-11T08:43:21Z</time>
      </trkpt>
      <trkpt lat="42.85747" lon="-0.17605">
        <ele>2126.57</ele>
        <time>2013-08-11T08:43:33Z</time>
      </trkpt>
      <trkpt lat="42.85744" lon="-0.17607">
        <ele>2128.02</ele>
        <time>2013-08-11T08:43:46Z</time>
      </trkpt>
      <trkpt lat="42.85743" lon="-0.17608">
        <ele>2128.5</ele>
        <time>2013-08-11T08:43:56Z</time>
      </trkpt>
      <trkpt lat="42.85738" lon="-0.17613">
        <ele>2129.94</ele>
        <time>2013-08-11T08:44:10Z</time>
      </trkpt>
      <trkpt lat="42.85736" lon="-0.17617">
        <ele>2130.9</ele>
        <time>2013-08-11T08:44:22Z</time>
      </trkpt>
      <trkpt lat="42.85732" lon="-0.17626">
        <ele>2131.86</ele>
        <time>2013-08-11T08:44:38Z</time>
      </trkpt>
      <trkpt lat="42.85728" lon="-0.1763">
        <ele>2133.3</ele>
        <time>2013-08-11T08:44:51Z</time>
      </trkpt>
      <trkpt lat="42.85723" lon="-0.17631">
        <ele>2134.26</ele>
        <time>2013-08-11T08:45:01Z</time>
      </trkpt>
      <trkpt lat="42.8572" lon="-0.17633">
        <ele>2136.19</ele>
        <time>2013-08-11T08:45:16Z</time>
      </trkpt>
      <trkpt lat="42.85717" lon="-0.17634">
        <ele>2136.19</ele>
        <time>2013-08-11T08:45:28Z</time>
      </trkpt>
      <trkpt lat="42.85714" lon="-0.17641">
        <ele>2136.67</ele>
        <time>2013-08-11T08:45:38Z</time>
      </trkpt>
      <trkpt lat="42.85711" lon="-0.17643">
        <ele>2137.63</ele>
        <time>2013-08-11T08:45:48Z</time>
      </trkpt>
      <trkpt lat="42.85706" lon="-0.17649">
        <ele>2138.59</ele>
        <time>2013-08-11T08:45:59Z</time>
      </trkpt>
      <trkpt lat="42.85704" lon="-0.17647">
        <ele>2140.03</ele>
        <time>2013-08-11T08:46:11Z</time>
      </trkpt>
      <trkpt lat="42.85702" lon="-0.17644">
        <ele>2140.51</ele>
        <time>2013-08-11T08:46:22Z</time>
      </trkpt>
      <trkpt lat="42.85702" lon="-0.17638">
        <ele>2141.47</ele>
        <time>2013-08-11T08:46:37Z</time>
      </trkpt>
      <trkpt lat="42.85704" lon="-0.17629">
        <ele>2142.92</ele>
        <time>2013-08-11T08:46:48Z</time>
      </trkpt>
      <trkpt lat="42.85707" lon="-0.17623">
        <ele>2143.4</ele>
        <time>2013-08-11T08:46:58Z</time>
      </trkpt>
      <trkpt lat="42.85706" lon="-0.17615">
        <ele>2144.84</ele>
        <time>2013-08-11T08:47:10Z</time>
      </trkpt>
      <trkpt lat="42.85707" lon="-0.1761">
        <ele>2145.8</ele>
        <time>2013-08-11T08:47:22Z</time>
      </trkpt>
      <trkpt lat="42.85705" lon="-0.17604">
        <ele>2146.76</ele>
        <time>2013-08-11T08:47:32Z</time>
      </trkpt>
      <trkpt lat="42.85707" lon="-0.176">
        <ele>2147.72</ele>
        <time>2013-08-11T08:47:45Z</time>
      </trkpt>
      <trkpt lat="42.85708" lon="-0.17596">
        <ele>2149.16</ele>
        <time>2013-08-11T08:48:00Z</time>
      </trkpt>
      <trkpt lat="42.85711" lon="-0.17596">
        <ele>2150.61</ele>
        <time>2013-08-11T08:48:13Z</time>
      </trkpt>
      <trkpt lat="42.8571" lon="-0.17596">
        <ele>2151.09</ele>
        <time>2013-08-11T08:48:35Z</time>
      </trkpt>
      <trkpt lat="42.85708" lon="-0.176">
        <ele>2152.53</ele>
        <time>2013-08-11T08:48:44Z</time>
      </trkpt>
      <trkpt lat="42.85704" lon="-0.17604">
        <ele>2153.49</ele>
        <time>2013-08-11T08:48:54Z</time>
      </trkpt>
      <trkpt lat="42.85701" lon="-0.17607">
        <ele>2153.97</ele>
        <time>2013-08-11T08:49:04Z</time>
      </trkpt>
      <trkpt lat="42.85699" lon="-0.17608">
        <ele>2154.93</ele>
        <time>2013-08-11T08:49:13Z</time>
      </trkpt>
      <trkpt lat="42.85694" lon="-0.17611">
        <ele>2156.37</ele>
        <time>2013-08-11T08:49:26Z</time>
      </trkpt>
      <trkpt lat="42.85691" lon="-0.17612">
        <ele>2156.86</ele>
        <time>2013-08-11T08:49:39Z</time>
      </trkpt>
      <trkpt lat="42.85689" lon="-0.17616">
        <ele>2158.3</ele>
        <time>2013-08-11T08:49:51Z</time>
      </trkpt>
      <trkpt lat="42.85685" lon="-0.17619">
        <ele>2159.26</ele>
        <time>2013-08-11T08:50:01Z</time>
      </trkpt>
      <trkpt lat="42.85683" lon="-0.17622">
        <ele>2159.74</ele>
        <time>2013-08-11T08:50:13Z</time>
      </trkpt>
      <trkpt lat="42.85681" lon="-0.17625">
        <ele>2160.22</ele>
        <time>2013-08-11T08:50:26Z</time>
      </trkpt>
      <trkpt lat="42.85678" lon="-0.17629">
        <ele>2161.66</ele>
        <time>2013-08-11T08:50:40Z</time>
      </trkpt>
      <trkpt lat="42.85677" lon="-0.17626">
        <ele>2163.1</ele>
        <time>2013-08-11T08:50:51Z</time>
      </trkpt>
      <trkpt lat="42.85677" lon="-0.17623">
        <ele>2164.06</ele>
        <time>2013-08-11T08:51:01Z</time>
      </trkpt>
      <trkpt lat="42.85677" lon="-0.17617">
        <ele>2164.55</ele>
        <time>2013-08-11T08:51:12Z</time>
      </trkpt>
      <trkpt lat="42.85677" lon="-0.17613">
        <ele>2165.51</ele>
        <time>2013-08-11T08:51:22Z</time>
      </trkpt>
      <trkpt lat="42.85678" lon="-0.17612">
        <ele>2166.47</ele>
        <time>2013-08-11T08:51:36Z</time>
      </trkpt>
      <trkpt lat="42.85677" lon="-0.17611">
        <ele>2167.43</ele>
        <time>2013-08-11T08:51:47Z</time>
      </trkpt>
      <trkpt lat="42.85678" lon="-0.17606">
        <ele>2167.91</ele>
        <time>2013-08-11T08:51:59Z</time>
      </trkpt>
      <trkpt lat="42.85678" lon="-0.17602">
        <ele>2169.35</ele>
        <time>2013-08-11T08:52:09Z</time>
      </trkpt>
      <trkpt lat="42.85678" lon="-0.176">
        <ele>2169.35</ele>
        <time>2013-08-11T08:52:21Z</time>
      </trkpt>
      <trkpt lat="42.85679" lon="-0.17593">
        <ele>2170.31</ele>
        <time>2013-08-11T08:52:32Z</time>
      </trkpt>
      <trkpt lat="42.8568" lon="-0.17585">
        <ele>2171.27</ele>
        <time>2013-08-11T08:52:45Z</time>
      </trkpt>
      <trkpt lat="42.8568" lon="-0.17581">
        <ele>2172.24</ele>
        <time>2013-08-11T08:52:56Z</time>
      </trkpt>
      <trkpt lat="42.85681" lon="-0.17578">
        <ele>2174.16</ele>
        <time>2013-08-11T08:53:10Z</time>
      </trkpt>
      <trkpt lat="42.85682" lon="-0.17575">
        <ele>2174.16</ele>
        <time>2013-08-11T08:53:24Z</time>
      </trkpt>
      <trkpt lat="42.85683" lon="-0.17572">
        <ele>2174.64</ele>
        <time>2013-08-11T08:53:38Z</time>
      </trkpt>
      <trkpt lat="42.85681" lon="-0.17573">
        <ele>2175.6</ele>
        <time>2013-08-11T08:53:49Z</time>
      </trkpt>
      <trkpt lat="42.85678" lon="-0.17577">
        <ele>2176.56</ele>
        <time>2013-08-11T08:54:01Z</time>
      </trkpt>
      <trkpt lat="42.85676" lon="-0.17579">
        <ele>2178</ele>
        <time>2013-08-11T08:54:13Z</time>
      </trkpt>
      <trkpt lat="42.85674" lon="-0.17583">
        <ele>2178.48</ele>
        <time>2013-08-11T08:54:24Z</time>
      </trkpt>
      <trkpt lat="42.85672" lon="-0.17586">
        <ele>2180.89</ele>
        <time>2013-08-11T08:54:37Z</time>
      </trkpt>
      <trkpt lat="42.8567" lon="-0.17586">
        <ele>2181.85</ele>
        <time>2013-08-11T08:54:47Z</time>
      </trkpt>
      <trkpt lat="42.8567" lon="-0.17585">
        <ele>2182.33</ele>
        <time>2013-08-11T08:54:59Z</time>
      </trkpt>
      <trkpt lat="42.85671" lon="-0.17584">
        <ele>2182.81</ele>
        <time>2013-08-11T08:55:19Z</time>
      </trkpt>
      <trkpt lat="42.85673" lon="-0.17577">
        <ele>2183.77</ele>
        <time>2013-08-11T08:55:30Z</time>
      </trkpt>
      <trkpt lat="42.85672" lon="-0.17572">
        <ele>2185.21</ele>
        <time>2013-08-11T08:55:41Z</time>
      </trkpt>
      <trkpt lat="42.85673" lon="-0.17564">
        <ele>2186.18</ele>
        <time>2013-08-11T08:55:53Z</time>
      </trkpt>
      <trkpt lat="42.85673" lon="-0.1756">
        <ele>2187.14</ele>
        <time>2013-08-11T08:56:03Z</time>
      </trkpt>
      <trkpt lat="42.85675" lon="-0.17555">
        <ele>2188.1</ele>
        <time>2013-08-11T08:56:17Z</time>
      </trkpt>
      <trkpt lat="42.85681" lon="-0.17547">
        <ele>2189.06</ele>
        <time>2013-08-11T08:56:29Z</time>
      </trkpt>
      <trkpt lat="42.85685" lon="-0.17543">
        <ele>2190.5</ele>
        <time>2013-08-11T08:56:44Z</time>
      </trkpt>
      <trkpt lat="42.85684" lon="-0.17543">
        <ele>2191.94</ele>
        <time>2013-08-11T08:56:58Z</time>
      </trkpt>
      <trkpt lat="42.85684" lon="-0.1754">
        <ele>2193.39</ele>
        <time>2013-08-11T08:57:12Z</time>
      </trkpt>
      <trkpt lat="42.85686" lon="-0.17535">
        <ele>2195.31</ele>
        <time>2013-08-11T08:57:26Z</time>
      </trkpt>
      <trkpt lat="42.85688" lon="-0.1753">
        <ele>2196.27</ele>
        <time>2013-08-11T08:57:40Z</time>
      </trkpt>
      <trkpt lat="42.85689" lon="-0.17529">
        <ele>2198.19</ele>
        <time>2013-08-11T08:57:54Z</time>
      </trkpt>
      <trkpt lat="42.85689" lon="-0.17526">
        <ele>2198.67</ele>
        <time>2013-08-11T08:58:05Z</time>
      </trkpt>
      <trkpt lat="42.85684" lon="-0.17527">
        <ele>2199.15</ele>
        <time>2013-08-11T08:58:15Z</time>
      </trkpt>
      <trkpt lat="42.85682" lon="-0.17527">
        <ele>2200.11</ele>
        <time>2013-08-11T08:58:28Z</time>
      </trkpt>
      <trkpt lat="42.85681" lon="-0.17525">
        <ele>2200.59</ele>
        <time>2013-08-11T08:58:41Z</time>
      </trkpt>
      <trkpt lat="42.85681" lon="-0.17525">
        <ele>2199.63</ele>
        <time>2013-08-11T08:59:01Z</time>
      </trkpt>
      <trkpt lat="42.85678" lon="-0.17524">
        <ele>2200.59</ele>
        <time>2013-08-11T08:59:14Z</time>
      </trkpt>
      <trkpt lat="42.85682" lon="-0.17521">
        <ele>2202.52</ele>
        <time>2013-08-11T08:59:28Z</time>
      </trkpt>
      <trkpt lat="42.85682" lon="-0.17521">
        <ele>2203</ele>
        <time>2013-08-11T08:59:30Z</time>
      </trkpt>
      <trkpt lat="42.85675" lon="-0.17522">
        <ele>2203.96</ele>
        <time>2013-08-11T08:59:41Z</time>
      </trkpt>
      <trkpt lat="42.85675" lon="-0.17522">
        <ele>2203.96</ele>
        <time>2013-08-11T08:59:58Z</time>
      </trkpt>
      <trkpt lat="42.85674" lon="-0.17521">
        <ele>2203.96</ele>
        <time>2013-08-11T09:00:16Z</time>
      </trkpt>
      <trkpt lat="42.85674" lon="-0.17521">
        <ele>2203.48</ele>
        <time>2013-08-11T09:00:41Z</time>
      </trkpt>
      <trkpt lat="42.85674" lon="-0.17521">
        <ele>2203.48</ele>
        <time>2013-08-11T09:01:06Z</time>
      </trkpt>
      <trkpt lat="42.85673" lon="-0.1752">
        <ele>2215.01</ele>
        <time>2013-08-11T09:01:16Z</time>
      </trkpt>
      <trkpt lat="42.85673" lon="-0.1752">
        <ele>2200.11</ele>
        <time>2013-08-11T09:01:17Z</time>
      </trkpt>
      <trkpt lat="42.85673" lon="-0.1752">
        <ele>2204.44</ele>
        <time>2013-08-11T09:01:18Z</time>
      </trkpt>
      <trkpt lat="42.85673" lon="-0.1752">
        <ele>2198.19</ele>
        <time>2013-08-11T09:01:20Z</time>
      </trkpt>
      <trkpt lat="42.85673" lon="-0.1752">
        <ele>2204.44</ele>
        <time>2013-08-11T09:01:21Z</time>
      </trkpt>
      <trkpt lat="42.85673" lon="-0.1752">
        <ele>2201.56</ele>
        <time>2013-08-11T09:01:22Z</time>
      </trkpt>
      <trkpt lat="42.85673" lon="-0.1752">
        <ele>2202.04</ele>
        <time>2013-08-11T09:01:35Z</time>
      </trkpt>
      <trkpt lat="42.85673" lon="-0.1752">
        <ele>2203.96</ele>
        <time>2013-08-11T09:01:37Z</time>
      </trkpt>
      <trkpt lat="42.85672" lon="-0.1752">
        <ele>2203.48</ele>
        <time>2013-08-11T09:01:58Z</time>
      </trkpt>
      <trkpt lat="42.85671" lon="-0.17519">
        <ele>2203.48</ele>
        <time>2013-08-11T09:02:26Z</time>
      </trkpt>
      <trkpt lat="42.85671" lon="-0.17518">
        <ele>2203.48</ele>
        <time>2013-08-11T09:02:45Z</time>
      </trkpt>
      <trkpt lat="42.85671" lon="-0.17518">
        <ele>2203</ele>
        <time>2013-08-11T09:03:06Z</time>
      </trkpt>
      <trkpt lat="42.85669" lon="-0.17517">
        <ele>2203.96</ele>
        <time>2013-08-11T09:03:22Z</time>
      </trkpt>
      <trkpt lat="42.8567" lon="-0.17517">
        <ele>2204.44</ele>
        <time>2013-08-11T09:03:29Z</time>
      </trkpt>
      <trkpt lat="42.8567" lon="-0.17516">
        <ele>2206.36</ele>
        <time>2013-08-11T09:03:40Z</time>
      </trkpt>
      <trkpt lat="42.85669" lon="-0.17516">
        <ele>2206.36</ele>
        <time>2013-08-11T09:03:48Z</time>
      </trkpt>
      <trkpt lat="42.85668" lon="-0.17515">
        <ele>2207.32</ele>
        <time>2013-08-11T09:03:59Z</time>
      </trkpt>
      <trkpt lat="42.85668" lon="-0.17515">
        <ele>2208.29</ele>
        <time>2013-08-11T09:04:11Z</time>
      </trkpt>
      <trkpt lat="42.85668" lon="-0.17515">
        <ele>2209.73</ele>
        <time>2013-08-11T09:04:24Z</time>
      </trkpt>
      <trkpt lat="42.85667" lon="-0.17514">
        <ele>2210.21</ele>
        <time>2013-08-11T09:04:36Z</time>
      </trkpt>
      <trkpt lat="42.85667" lon="-0.17514">
        <ele>2211.65</ele>
        <time>2013-08-11T09:04:49Z</time>
      </trkpt>
      <trkpt lat="42.8566" lon="-0.17505">
        <ele>2212.13</ele>
        <time>2013-08-11T09:05:00Z</time>
      </trkpt>
      <trkpt lat="42.8566" lon="-0.17505">
        <ele>2213.57</ele>
        <time>2013-08-11T09:05:12Z</time>
      </trkpt>
      <trkpt lat="42.8566" lon="-0.17505">
        <ele>2214.05</ele>
        <time>2013-08-11T09:05:22Z</time>
      </trkpt>
      <trkpt lat="42.8566" lon="-0.17505">
        <ele>2215.01</ele>
        <time>2013-08-11T09:05:33Z</time>
      </trkpt>
      <trkpt lat="42.85654" lon="-0.17502">
        <ele>2215.98</ele>
        <time>2013-08-11T09:05:46Z</time>
      </trkpt>
      <trkpt lat="42.8565" lon="-0.175">
        <ele>2215.98</ele>
        <time>2013-08-11T09:05:56Z</time>
      </trkpt>
      <trkpt lat="42.85646" lon="-0.17496">
        <ele>2215.98</ele>
        <time>2013-08-11T09:06:02Z</time>
      </trkpt>
      <trkpt lat="42.85629" lon="-0.17494">
        <ele>2216.46</ele>
        <time>2013-08-11T09:06:12Z</time>
      </trkpt>
      <trkpt lat="42.85629" lon="-0.17494">
        <ele>2216.94</ele>
        <time>2013-08-11T09:06:25Z</time>
      </trkpt>
      <trkpt lat="42.85628" lon="-0.17493">
        <ele>2217.42</ele>
        <time>2013-08-11T09:06:37Z</time>
      </trkpt>
      <trkpt lat="42.85621" lon="-0.17492">
        <ele>2218.86</ele>
        <time>2013-08-11T09:06:51Z</time>
      </trkpt>
      <trkpt lat="42.85621" lon="-0.17492">
        <ele>2220.3</ele>
        <time>2013-08-11T09:07:05Z</time>
      </trkpt>
      <trkpt lat="42.85611" lon="-0.1749">
        <ele>2220.3</ele>
        <time>2013-08-11T09:07:14Z</time>
      </trkpt>
      <trkpt lat="42.85611" lon="-0.1749">
        <ele>2221.26</ele>
        <time>2013-08-11T09:07:27Z</time>
      </trkpt>
      <trkpt lat="42.85611" lon="-0.1749">
        <ele>2222.22</ele>
        <time>2013-08-11T09:07:40Z</time>
      </trkpt>
      <trkpt lat="42.85608" lon="-0.17485">
        <ele>2221.74</ele>
        <time>2013-08-11T09:07:52Z</time>
      </trkpt>
      <trkpt lat="42.85608" lon="-0.17485">
        <ele>2222.22</ele>
        <time>2013-08-11T09:08:03Z</time>
      </trkpt>
      <trkpt lat="42.85607" lon="-0.17484">
        <ele>2222.71</ele>
        <time>2013-08-11T09:08:12Z</time>
      </trkpt>
      <trkpt lat="42.85607" lon="-0.17484">
        <ele>2223.19</ele>
        <time>2013-08-11T09:08:24Z</time>
      </trkpt>
      <trkpt lat="42.85607" lon="-0.1748">
        <ele>2223.67</ele>
        <time>2013-08-11T09:08:32Z</time>
      </trkpt>
      <trkpt lat="42.8561" lon="-0.17476">
        <ele>2224.15</ele>
        <time>2013-08-11T09:08:43Z</time>
      </trkpt>
      <trkpt lat="42.85613" lon="-0.17476">
        <ele>2225.11</ele>
        <time>2013-08-11T09:08:58Z</time>
      </trkpt>
      <trkpt lat="42.85619" lon="-0.17473">
        <ele>2225.59</ele>
        <time>2013-08-11T09:09:08Z</time>
      </trkpt>
      <trkpt lat="42.8562" lon="-0.17467">
        <ele>2226.55</ele>
        <time>2013-08-11T09:09:20Z</time>
      </trkpt>
      <trkpt lat="42.8562" lon="-0.17467">
        <ele>2228.47</ele>
        <time>2013-08-11T09:09:35Z</time>
      </trkpt>
      <trkpt lat="42.8562" lon="-0.17467">
        <ele>2229.43</ele>
        <time>2013-08-11T09:09:46Z</time>
      </trkpt>
      <trkpt lat="42.8562" lon="-0.17467">
        <ele>2230.88</ele>
        <time>2013-08-11T09:09:58Z</time>
      </trkpt>
      <trkpt lat="42.85619" lon="-0.17466">
        <ele>2232.32</ele>
        <time>2013-08-11T09:10:11Z</time>
      </trkpt>
      <trkpt lat="42.85622" lon="-0.17463">
        <ele>2231.84</ele>
        <time>2013-08-11T09:10:24Z</time>
      </trkpt>
      <trkpt lat="42.85625" lon="-0.1746">
        <ele>2233.28</ele>
        <time>2013-08-11T09:10:36Z</time>
      </trkpt>
      <trkpt lat="42.85625" lon="-0.1746">
        <ele>2234.72</ele>
        <time>2013-08-11T09:10:50Z</time>
      </trkpt>
      <trkpt lat="42.85629" lon="-0.17458">
        <ele>2235.2</ele>
        <time>2013-08-11T09:11:02Z</time>
      </trkpt>
      <trkpt lat="42.8563" lon="-0.17457">
        <ele>2236.16</ele>
        <time>2013-08-11T09:11:15Z</time>
      </trkpt>
      <trkpt lat="42.8563" lon="-0.17454">
        <ele>2237.61</ele>
        <time>2013-08-11T09:11:27Z</time>
      </trkpt>
      <trkpt lat="42.85631" lon="-0.17448">
        <ele>2238.09</ele>
        <time>2013-08-11T09:11:38Z</time>
      </trkpt>
      <trkpt lat="42.85632" lon="-0.17448">
        <ele>2239.53</ele>
        <time>2013-08-11T09:11:48Z</time>
      </trkpt>
      <trkpt lat="42.85637" lon="-0.17446">
        <ele>2240.97</ele>
        <time>2013-08-11T09:12:03Z</time>
      </trkpt>
      <trkpt lat="42.8564" lon="-0.17443">
        <ele>2241.93</ele>
        <time>2013-08-11T09:12:17Z</time>
      </trkpt>
      <trkpt lat="42.85648" lon="-0.17439">
        <ele>2242.89</ele>
        <time>2013-08-11T09:12:31Z</time>
      </trkpt>
      <trkpt lat="42.85651" lon="-0.17436">
        <ele>2244.33</ele>
        <time>2013-08-11T09:12:43Z</time>
      </trkpt>
      <trkpt lat="42.85655" lon="-0.17432">
        <ele>2244.82</ele>
        <time>2013-08-11T09:12:52Z</time>
      </trkpt>
      <trkpt lat="42.8566" lon="-0.17428">
        <ele>2246.26</ele>
        <time>2013-08-11T09:13:03Z</time>
      </trkpt>
      <trkpt lat="42.8566" lon="-0.17426">
        <ele>2247.22</ele>
        <time>2013-08-11T09:13:16Z</time>
      </trkpt>
      <trkpt lat="42.8566" lon="-0.17425">
        <ele>2248.66</ele>
        <time>2013-08-11T09:13:28Z</time>
      </trkpt>
      <trkpt lat="42.8566" lon="-0.17424">
        <ele>2249.62</ele>
        <time>2013-08-11T09:13:45Z</time>
      </trkpt>
      <trkpt lat="42.85656" lon="-0.17423">
        <ele>2251.54</ele>
        <time>2013-08-11T09:13:57Z</time>
      </trkpt>
      <trkpt lat="42.85652" lon="-0.17424">
        <ele>2252.03</ele>
        <time>2013-08-11T09:14:08Z</time>
      </trkpt>
      <trkpt lat="42.85646" lon="-0.17423">
        <ele>2253.95</ele>
        <time>2013-08-11T09:14:22Z</time>
      </trkpt>
      <trkpt lat="42.85642" lon="-0.17421">
        <ele>2254.43</ele>
        <time>2013-08-11T09:14:34Z</time>
      </trkpt>
      <trkpt lat="42.85639" lon="-0.1742">
        <ele>2255.39</ele>
        <time>2013-08-11T09:14:41Z</time>
      </trkpt>
      <trkpt lat="42.85634" lon="-0.17419">
        <ele>2256.35</ele>
        <time>2013-08-11T09:14:52Z</time>
      </trkpt>
      <trkpt lat="42.85634" lon="-0.17419">
        <ele>2258.27</ele>
        <time>2013-08-11T09:15:05Z</time>
      </trkpt>
      <trkpt lat="42.8563" lon="-0.17419">
        <ele>2258.75</ele>
        <time>2013-08-11T09:15:14Z</time>
      </trkpt>
      <trkpt lat="42.8562" lon="-0.17423">
        <ele>2259.72</ele>
        <time>2013-08-11T09:15:26Z</time>
      </trkpt>
      <trkpt lat="42.85614" lon="-0.17425">
        <ele>2260.68</ele>
        <time>2013-08-11T09:15:40Z</time>
      </trkpt>
      <trkpt lat="42.85608" lon="-0.17426">
        <ele>2262.6</ele>
        <time>2013-08-11T09:15:51Z</time>
      </trkpt>
      <trkpt lat="42.85603" lon="-0.17427">
        <ele>2263.08</ele>
        <time>2013-08-11T09:16:03Z</time>
      </trkpt>
      <trkpt lat="42.85599" lon="-0.17427">
        <ele>2263.56</ele>
        <time>2013-08-11T09:16:13Z</time>
      </trkpt>
      <trkpt lat="42.85597" lon="-0.17427">
        <ele>2264.04</ele>
        <time>2013-08-11T09:16:30Z</time>
      </trkpt>
      <trkpt lat="42.85593" lon="-0.17425">
        <ele>2264.04</ele>
        <time>2013-08-11T09:16:42Z</time>
      </trkpt>
      <trkpt lat="42.85586" lon="-0.17427">
        <ele>2265.48</ele>
        <time>2013-08-11T09:16:55Z</time>
      </trkpt>
      <trkpt lat="42.8558" lon="-0.17428">
        <ele>2266.45</ele>
        <time>2013-08-11T09:17:05Z</time>
      </trkpt>
      <trkpt lat="42.85577" lon="-0.17427">
        <ele>2267.89</ele>
        <time>2013-08-11T09:17:17Z</time>
      </trkpt>
      <trkpt lat="42.85574" lon="-0.17425">
        <ele>2270.29</ele>
        <time>2013-08-11T09:17:28Z</time>
      </trkpt>
      <trkpt lat="42.85571" lon="-0.17423">
        <ele>2270.77</ele>
        <time>2013-08-11T09:17:40Z</time>
      </trkpt>
      <trkpt lat="42.85569" lon="-0.17423">
        <ele>2272.21</ele>
        <time>2013-08-11T09:17:51Z</time>
      </trkpt>
      <trkpt lat="42.85564" lon="-0.17423">
        <ele>2273.66</ele>
        <time>2013-08-11T09:18:05Z</time>
      </trkpt>
      <trkpt lat="42.85565" lon="-0.1742">
        <ele>2274.14</ele>
        <time>2013-08-11T09:18:14Z</time>
      </trkpt>
      <trkpt lat="42.85564" lon="-0.17418">
        <ele>2275.58</ele>
        <time>2013-08-11T09:18:27Z</time>
      </trkpt>
      <trkpt lat="42.85563" lon="-0.17418">
        <ele>2276.06</ele>
        <time>2013-08-11T09:18:30Z</time>
      </trkpt>
      <trkpt lat="42.85558" lon="-0.17418">
        <ele>2277.5</ele>
        <time>2013-08-11T09:18:45Z</time>
      </trkpt>
      <trkpt lat="42.85556" lon="-0.17417">
        <ele>2278.46</ele>
        <time>2013-08-11T09:18:58Z</time>
      </trkpt>
      <trkpt lat="42.85554" lon="-0.17416">
        <ele>2279.9</ele>
        <time>2013-08-11T09:19:09Z</time>
      </trkpt>
      <trkpt lat="42.8555" lon="-0.17417">
        <ele>2280.87</ele>
        <time>2013-08-11T09:19:20Z</time>
      </trkpt>
      <trkpt lat="42.85544" lon="-0.1742">
        <ele>2281.83</ele>
        <time>2013-08-11T09:19:30Z</time>
      </trkpt>
      <trkpt lat="42.8554" lon="-0.17423">
        <ele>2282.79</ele>
        <time>2013-08-11T09:19:41Z</time>
      </trkpt>
      <trkpt lat="42.85534" lon="-0.17424">
        <ele>2284.23</ele>
        <time>2013-08-11T09:19:57Z</time>
      </trkpt>
      <trkpt lat="42.85531" lon="-0.17425">
        <ele>2284.23</ele>
        <time>2013-08-11T09:20:14Z</time>
      </trkpt>
      <trkpt lat="42.85523" lon="-0.17425">
        <ele>2284.71</ele>
        <time>2013-08-11T09:20:26Z</time>
      </trkpt>
      <trkpt lat="42.85514" lon="-0.17426">
        <ele>2284.71</ele>
        <time>2013-08-11T09:20:40Z</time>
      </trkpt>
      <trkpt lat="42.85514" lon="-0.17426">
        <ele>2292.4</ele>
        <time>2013-08-11T09:20:46Z</time>
      </trkpt>
      <trkpt lat="42.85514" lon="-0.17426">
        <ele>2281.35</ele>
        <time>2013-08-11T09:20:47Z</time>
      </trkpt>
      <trkpt lat="42.85514" lon="-0.17426">
        <ele>2285.67</ele>
        <time>2013-08-11T09:20:48Z</time>
      </trkpt>
      <trkpt lat="42.85517" lon="-0.17427">
        <ele>2285.19</ele>
        <time>2013-08-11T09:21:07Z</time>
      </trkpt>
      <trkpt lat="42.85519" lon="-0.17428">
        <ele>2285.19</ele>
        <time>2013-08-11T09:21:25Z</time>
      </trkpt>
      <trkpt lat="42.8552" lon="-0.17428">
        <ele>2285.19</ele>
        <time>2013-08-11T09:21:43Z</time>
      </trkpt>
      <trkpt lat="42.85521" lon="-0.17427">
        <ele>2285.67</ele>
        <time>2013-08-11T09:21:59Z</time>
      </trkpt>
      <trkpt lat="42.85523" lon="-0.17427">
        <ele>2286.15</ele>
        <time>2013-08-11T09:22:08Z</time>
      </trkpt>
      <trkpt lat="42.85508" lon="-0.17428">
        <ele>2285.67</ele>
        <time>2013-08-11T09:22:21Z</time>
      </trkpt>
      <trkpt lat="42.85499" lon="-0.17426">
        <ele>2286.63</ele>
        <time>2013-08-11T09:22:34Z</time>
      </trkpt>
      <trkpt lat="42.85489" lon="-0.17428">
        <ele>2288.56</ele>
        <time>2013-08-11T09:22:49Z</time>
      </trkpt>
      <trkpt lat="42.85486" lon="-0.1743">
        <ele>2289.04</ele>
        <time>2013-08-11T09:23:05Z</time>
      </trkpt>
      <trkpt lat="42.85482" lon="-0.17432">
        <ele>2290</ele>
        <time>2013-08-11T09:23:16Z</time>
      </trkpt>
      <trkpt lat="42.85475" lon="-0.17433">
        <ele>2292.4</ele>
        <time>2013-08-11T09:23:27Z</time>
      </trkpt>
      <trkpt lat="42.85473" lon="-0.17433">
        <ele>2292.88</ele>
        <time>2013-08-11T09:23:36Z</time>
      </trkpt>
      <trkpt lat="42.8547" lon="-0.17433">
        <ele>2293.84</ele>
        <time>2013-08-11T09:23:47Z</time>
      </trkpt>
      <trkpt lat="42.85468" lon="-0.17434">
        <ele>2295.77</ele>
        <time>2013-08-11T09:24:01Z</time>
      </trkpt>
      <trkpt lat="42.85465" lon="-0.17432">
        <ele>2296.25</ele>
        <time>2013-08-11T09:24:10Z</time>
      </trkpt>
      <trkpt lat="42.85461" lon="-0.17431">
        <ele>2298.17</ele>
        <time>2013-08-11T09:24:22Z</time>
      </trkpt>
      <trkpt lat="42.85459" lon="-0.17432">
        <ele>2298.65</ele>
        <time>2013-08-11T09:24:27Z</time>
      </trkpt>
      <trkpt lat="42.85455" lon="-0.17434">
        <ele>2300.09</ele>
        <time>2013-08-11T09:24:38Z</time>
      </trkpt>
      <trkpt lat="42.85452" lon="-0.17435">
        <ele>2301.05</ele>
        <time>2013-08-11T09:24:49Z</time>
      </trkpt>
      <trkpt lat="42.85452" lon="-0.17438">
        <ele>2302.01</ele>
        <time>2013-08-11T09:25:01Z</time>
      </trkpt>
      <trkpt lat="42.85451" lon="-0.17439">
        <ele>2302.98</ele>
        <time>2013-08-11T09:25:14Z</time>
      </trkpt>
      <trkpt lat="42.85448" lon="-0.17438">
        <ele>2303.94</ele>
        <time>2013-08-11T09:25:26Z</time>
      </trkpt>
      <trkpt lat="42.85444" lon="-0.1744">
        <ele>2304.9</ele>
        <time>2013-08-11T09:25:38Z</time>
      </trkpt>
      <trkpt lat="42.85441" lon="-0.17445">
        <ele>2306.34</ele>
        <time>2013-08-11T09:25:54Z</time>
      </trkpt>
      <trkpt lat="42.85441" lon="-0.17446">
        <ele>2307.3</ele>
        <time>2013-08-11T09:26:07Z</time>
      </trkpt>
      <trkpt lat="42.8544" lon="-0.17448">
        <ele>2308.74</ele>
        <time>2013-08-11T09:26:21Z</time>
      </trkpt>
      <trkpt lat="42.85437" lon="-0.17447">
        <ele>2309.22</ele>
        <time>2013-08-11T09:26:33Z</time>
      </trkpt>
      <trkpt lat="42.85434" lon="-0.17446">
        <ele>2311.15</ele>
        <time>2013-08-11T09:26:46Z</time>
      </trkpt>
      <trkpt lat="42.85433" lon="-0.17447">
        <ele>2311.63</ele>
        <time>2013-08-11T09:27:04Z</time>
      </trkpt>
      <trkpt lat="42.85428" lon="-0.17443">
        <ele>2312.59</ele>
        <time>2013-08-11T09:27:17Z</time>
      </trkpt>
      <trkpt lat="42.85427" lon="-0.17443">
        <ele>2313.55</ele>
        <time>2013-08-11T09:27:26Z</time>
      </trkpt>
      <trkpt lat="42.85425" lon="-0.17439">
        <ele>2314.51</ele>
        <time>2013-08-11T09:27:38Z</time>
      </trkpt>
      <trkpt lat="42.85423" lon="-0.17447">
        <ele>2315.95</ele>
        <time>2013-08-11T09:27:51Z</time>
      </trkpt>
      <trkpt lat="42.85423" lon="-0.1745">
        <ele>2317.4</ele>
        <time>2013-08-11T09:28:01Z</time>
      </trkpt>
      <trkpt lat="42.85422" lon="-0.17458">
        <ele>2317.88</ele>
        <time>2013-08-11T09:28:14Z</time>
      </trkpt>
      <trkpt lat="42.85422" lon="-0.1746">
        <ele>2318.36</ele>
        <time>2013-08-11T09:28:28Z</time>
      </trkpt>
      <trkpt lat="42.85424" lon="-0.17465">
        <ele>2320.76</ele>
        <time>2013-08-11T09:28:46Z</time>
      </trkpt>
      <trkpt lat="42.85423" lon="-0.1747">
        <ele>2321.72</ele>
        <time>2013-08-11T09:28:58Z</time>
      </trkpt>
      <trkpt lat="42.85423" lon="-0.17475">
        <ele>2323.64</ele>
        <time>2013-08-11T09:29:15Z</time>
      </trkpt>
      <trkpt lat="42.85424" lon="-0.17479">
        <ele>2325.57</ele>
        <time>2013-08-11T09:29:32Z</time>
      </trkpt>
      <trkpt lat="42.8542" lon="-0.17478">
        <ele>2325.57</ele>
        <time>2013-08-11T09:29:52Z</time>
      </trkpt>
      <trkpt lat="42.85415" lon="-0.1748">
        <ele>2327.49</ele>
        <time>2013-08-11T09:30:05Z</time>
      </trkpt>
      <trkpt lat="42.85411" lon="-0.17478">
        <ele>2328.45</ele>
        <time>2013-08-11T09:30:17Z</time>
      </trkpt>
      <trkpt lat="42.85406" lon="-0.17478">
        <ele>2329.41</ele>
        <time>2013-08-11T09:30:29Z</time>
      </trkpt>
      <trkpt lat="42.85402" lon="-0.17476">
        <ele>2330.85</ele>
        <time>2013-08-11T09:30:43Z</time>
      </trkpt>
      <trkpt lat="42.854" lon="-0.17475">
        <ele>2331.81</ele>
        <time>2013-08-11T09:30:56Z</time>
      </trkpt>
      <trkpt lat="42.854" lon="-0.17477">
        <ele>2333.26</ele>
        <time>2013-08-11T09:31:09Z</time>
      </trkpt>
      <trkpt lat="42.85402" lon="-0.17479">
        <ele>2333.26</ele>
        <time>2013-08-11T09:31:20Z</time>
      </trkpt>
      <trkpt lat="42.85403" lon="-0.17487">
        <ele>2334.7</ele>
        <time>2013-08-11T09:31:31Z</time>
      </trkpt>
      <trkpt lat="42.85403" lon="-0.17491">
        <ele>2336.62</ele>
        <time>2013-08-11T09:31:45Z</time>
      </trkpt>
      <trkpt lat="42.85402" lon="-0.17496">
        <ele>2338.06</ele>
        <time>2013-08-11T09:31:57Z</time>
      </trkpt>
      <trkpt lat="42.85402" lon="-0.17497">
        <ele>2339.02</ele>
        <time>2013-08-11T09:32:12Z</time>
      </trkpt>
      <trkpt lat="42.85398" lon="-0.17495">
        <ele>2340.95</ele>
        <time>2013-08-11T09:32:27Z</time>
      </trkpt>
      <trkpt lat="42.85398" lon="-0.17497">
        <ele>2342.39</ele>
        <time>2013-08-11T09:32:42Z</time>
      </trkpt>
      <trkpt lat="42.85401" lon="-0.17501">
        <ele>2343.35</ele>
        <time>2013-08-11T09:32:57Z</time>
      </trkpt>
      <trkpt lat="42.85401" lon="-0.17506">
        <ele>2344.31</ele>
        <time>2013-08-11T09:33:08Z</time>
      </trkpt>
      <trkpt lat="42.85397" lon="-0.17502">
        <ele>2345.75</ele>
        <time>2013-08-11T09:33:22Z</time>
      </trkpt>
      <trkpt lat="42.85392" lon="-0.175">
        <ele>2347.68</ele>
        <time>2013-08-11T09:33:35Z</time>
      </trkpt>
      <trkpt lat="42.85387" lon="-0.17496">
        <ele>2348.64</ele>
        <time>2013-08-11T09:33:52Z</time>
      </trkpt>
      <trkpt lat="42.85385" lon="-0.17498">
        <ele>2350.08</ele>
        <time>2013-08-11T09:34:04Z</time>
      </trkpt>
      <trkpt lat="42.85388" lon="-0.17502">
        <ele>2350.08</ele>
        <time>2013-08-11T09:34:10Z</time>
      </trkpt>
      <trkpt lat="42.85391" lon="-0.17508">
        <ele>2351.04</ele>
        <time>2013-08-11T09:34:19Z</time>
      </trkpt>
      <trkpt lat="42.85395" lon="-0.17513">
        <ele>2352</ele>
        <time>2013-08-11T09:34:32Z</time>
      </trkpt>
      <trkpt lat="42.85394" lon="-0.17512">
        <ele>2353.44</ele>
        <time>2013-08-11T09:34:44Z</time>
      </trkpt>
      <trkpt lat="42.8539" lon="-0.17512">
        <ele>2354.89</ele>
        <time>2013-08-11T09:34:54Z</time>
      </trkpt>
      <trkpt lat="42.85386" lon="-0.17512">
        <ele>2355.37</ele>
        <time>2013-08-11T09:35:07Z</time>
      </trkpt>
      <trkpt lat="42.85381" lon="-0.17511">
        <ele>2356.81</ele>
        <time>2013-08-11T09:35:21Z</time>
      </trkpt>
      <trkpt lat="42.85379" lon="-0.17511">
        <ele>2357.29</ele>
        <time>2013-08-11T09:35:34Z</time>
      </trkpt>
      <trkpt lat="42.85375" lon="-0.17509">
        <ele>2358.25</ele>
        <time>2013-08-11T09:35:54Z</time>
      </trkpt>
      <trkpt lat="42.85373" lon="-0.1751">
        <ele>2359.69</ele>
        <time>2013-08-11T09:36:07Z</time>
      </trkpt>
      <trkpt lat="42.85374" lon="-0.17514">
        <ele>2359.21</ele>
        <time>2013-08-11T09:36:21Z</time>
      </trkpt>
      <trkpt lat="42.85374" lon="-0.17514">
        <ele>2359.69</ele>
        <time>2013-08-11T09:36:40Z</time>
      </trkpt>
      <trkpt lat="42.85374" lon="-0.17514">
        <ele>2360.17</ele>
        <time>2013-08-11T09:37:04Z</time>
      </trkpt>
      <trkpt lat="42.85374" lon="-0.17514">
        <ele>2360.17</ele>
        <time>2013-08-11T09:37:18Z</time>
      </trkpt>
      <trkpt lat="42.85371" lon="-0.17513">
        <ele>2360.17</ele>
        <time>2013-08-11T09:37:33Z</time>
      </trkpt>
      <trkpt lat="42.85372" lon="-0.17512">
        <ele>2360.65</ele>
        <time>2013-08-11T09:37:51Z</time>
      </trkpt>
      <trkpt lat="42.8537" lon="-0.17511">
        <ele>2360.17</ele>
        <time>2013-08-11T09:38:05Z</time>
      </trkpt>
      <trkpt lat="42.85371" lon="-0.17512">
        <ele>2360.65</ele>
        <time>2013-08-11T09:38:22Z</time>
      </trkpt>
      <trkpt lat="42.85371" lon="-0.17512">
        <ele>2361.14</ele>
        <time>2013-08-11T09:38:40Z</time>
      </trkpt>
      <trkpt lat="42.85371" lon="-0.17509">
        <ele>2360.65</ele>
        <time>2013-08-11T09:38:52Z</time>
      </trkpt>
      <trkpt lat="42.8537" lon="-0.17508">
        <ele>2361.62</ele>
        <time>2013-08-11T09:39:07Z</time>
      </trkpt>
      <trkpt lat="42.85369" lon="-0.1751">
        <ele>2361.14</ele>
        <time>2013-08-11T09:39:23Z</time>
      </trkpt>
    </trkseg>
  </trk>
</gpx>